createdAt,value
2023-03-10T00:00:24.482Z,97766.00
2023-03-10T00:02:52.135Z,97759.53
2023-03-10T00:05:20.688Z,97728.44
2023-03-10T00:07:50.242Z,97768.56
2023-03-10T00:10:18.660Z,97758.19
2023-03-10T00:12:46.853Z,97745.28
2023-03-10T00:15:14.714Z,97758.19
2023-03-10T00:17:43.754Z,97751.13
2023-03-10T00:20:13.375Z,97752.88
2023-03-10T00:22:41.738Z,97737.91
2023-03-10T00:25:11.429Z,97728.22
2023-03-10T00:27:39.372Z,97724.81
2023-03-10T00:30:08.474Z,97723.56
2023-03-10T00:32:36.703Z,97713.13
2023-03-10T00:35:07.652Z,97707.59
2023-03-10T00:37:38.005Z,97693.50
2023-03-10T00:40:09.321Z,97708.16
2023-03-10T00:42:37.042Z,97697.16
2023-03-10T00:45:05.334Z,97701.13
2023-03-10T00:47:33.234Z,97672.09
2023-03-10T00:50:00.924Z,97698.56
2023-03-10T00:52:33.100Z,97686.94
2023-03-10T00:55:00.965Z,97689.97
2023-03-10T00:57:28.800Z,97677.66
2023-03-10T00:59:56.643Z,97672.69
2023-03-10T01:02:24.332Z,97669.50
2023-03-10T01:04:52.047Z,97665.75
2023-03-10T01:07:19.976Z,97665.75
2023-03-10T01:09:48.986Z,97662.66
2023-03-10T01:12:19.034Z,97652.09
2023-03-10T01:14:46.920Z,97653.53
2023-03-10T01:17:16.343Z,97638.13
2023-03-10T01:19:44.239Z,97638.00
2023-03-10T01:22:11.977Z,97632.63
2023-03-10T01:24:39.676Z,97630.06
2023-03-10T01:27:08.774Z,97634.72
2023-03-10T01:29:36.469Z,97616.66
2023-03-10T01:32:04.324Z,97624.69
2023-03-10T01:34:32.211Z,97582.28
2023-03-10T01:37:00.023Z,97613.91
2023-03-10T01:39:28.280Z,97630.81
2023-03-10T01:41:55.940Z,97626.00
2023-03-10T01:44:24.952Z,97610.03
2023-03-10T01:46:55.888Z,97607.19
2023-03-10T01:49:39.217Z,97615.28
2023-03-10T01:52:13.400Z,97607.75
2023-03-10T01:54:50.128Z,97615.22
2023-03-10T01:57:21.901Z,97602.03
2023-03-10T01:59:51.774Z,97600.13
2023-03-10T02:02:19.939Z,97591.03
2023-03-10T02:04:49.462Z,97590.78
2023-03-10T02:07:25.766Z,97593.75
2023-03-10T02:09:56.553Z,97592.94
2023-03-10T02:12:24.756Z,97585.28
2023-03-10T02:14:55.419Z,97586.06
2023-03-10T02:17:25.153Z,97544.81
2023-03-10T02:20:06.365Z,97566.13
2023-03-10T02:22:34.278Z,97588.91
2023-03-10T02:25:08.511Z,97576.00
2023-03-10T02:27:40.037Z,97574.69
2023-03-10T02:30:12.217Z,97565.09
2023-03-10T02:32:43.949Z,97566.88
2023-03-10T02:35:12.474Z,97567.69
2023-03-10T02:37:50.718Z,97548.56
2023-03-10T02:40:32.387Z,97567.44
2023-03-10T02:43:06.658Z,97564.78
2023-03-10T02:45:38.756Z,97559.13
2023-03-10T02:48:08.405Z,97555.72
2023-03-10T02:50:40.629Z,97555.72
2023-03-10T02:53:13.037Z,97556.34
2023-03-10T02:55:41.061Z,97551.31
2023-03-10T02:58:10.557Z,97553.72
2023-03-10T03:00:39.047Z,97552.94
2023-03-10T03:03:09.746Z,97539.47
2023-03-10T03:05:38.359Z,97538.47
2023-03-10T03:08:07.781Z,97545.59
2023-03-10T03:10:36.895Z,97543.75
2023-03-10T03:13:06.290Z,97534.06
2023-03-10T03:15:35.802Z,97541.25
2023-03-10T03:18:05.156Z,97471.69
2023-03-10T03:20:36.643Z,97531.28
2023-03-10T03:23:05.446Z,97525.75
2023-03-10T03:25:37.005Z,97533.66
2023-03-10T03:28:06.310Z,97531.59
2023-03-10T03:30:36.072Z,97524.00
2023-03-10T03:33:06.878Z,97527.72
2023-03-10T03:35:38.351Z,97532.44
2023-03-10T03:38:08.423Z,97520.97
2023-03-10T03:40:38.336Z,97456.09
2023-03-10T03:43:07.088Z,97519.56
2023-03-10T03:45:37.219Z,97519.00
2023-03-10T03:48:05.739Z,97503.78
2023-03-10T03:50:36.280Z,97513.19
2023-03-10T03:53:10.351Z,97516.75
2023-03-10T03:55:39.304Z,97508.38
2023-03-10T03:58:07.189Z,97510.25
2023-03-10T04:00:35.585Z,97504.06
2023-03-10T04:03:08.337Z,97505.38
2023-03-10T04:05:36.639Z,97494.31
2023-03-10T04:08:05.222Z,97425.25
2023-03-10T04:10:32.999Z,97476.56
2023-03-10T04:13:01.716Z,97488.91
2023-03-10T04:15:31.442Z,97502.03
2023-03-10T04:18:00.452Z,97492.13
2023-03-10T04:20:30.258Z,97492.78
2023-03-10T04:22:58.131Z,97459.88
2023-03-10T04:25:31.440Z,97449.03
2023-03-10T04:27:59.199Z,97474.56
2023-03-10T04:30:29.586Z,97478.84
2023-03-10T04:33:00.078Z,97490.06
2023-03-10T04:35:31.674Z,97493.84
2023-03-10T04:38:00.479Z,97489.72
2023-03-10T04:40:28.883Z,97496.34
2023-03-10T04:42:56.926Z,97491.22
2023-03-10T04:45:24.709Z,97485.47
2023-03-10T04:47:54.052Z,97482.72
2023-03-10T04:50:22.042Z,97476.19
2023-03-10T04:52:52.995Z,97477.91
2023-03-10T04:55:25.164Z,97471.78
2023-03-10T04:57:52.905Z,97471.94
2023-03-10T05:00:21.006Z,97469.19
2023-03-10T05:02:49.288Z,97468.66
2023-03-10T05:05:17.121Z,97464.56
2023-03-10T05:07:46.788Z,97467.88
2023-03-10T05:10:15.962Z,97458.78
2023-03-10T05:12:43.596Z,97456.78
2023-03-10T05:15:12.998Z,97453.47
2023-03-10T05:17:40.686Z,97442.59
2023-03-10T05:20:10.639Z,97447.50
2023-03-10T05:22:39.418Z,97447.72
2023-03-10T05:25:11.514Z,97432.78
2023-03-10T05:27:42.228Z,97441.00
2023-03-10T05:30:15.430Z,97434.00
2023-03-10T05:32:46.265Z,97416.84
2023-03-10T05:35:15.339Z,97424.13
2023-03-10T05:37:45.657Z,97409.41
2023-03-10T05:40:15.552Z,97410.03
2023-03-10T05:42:45.351Z,97417.22
2023-03-10T05:45:13.459Z,97413.16
2023-03-10T05:47:41.614Z,97403.16
2023-03-10T05:50:11.356Z,97407.78
2023-03-10T05:52:40.271Z,97409.69
2023-03-10T05:55:12.264Z,97418.75
2023-03-10T05:57:40.201Z,97419.56
2023-03-10T06:00:11.817Z,97415.72
2023-03-10T06:02:46.312Z,97406.59
2023-03-10T06:05:14.144Z,97410.31
2023-03-10T06:07:42.315Z,97409.47
2023-03-10T06:10:11.401Z,97404.63
2023-03-10T06:12:39.352Z,97397.28
2023-03-10T06:15:09.639Z,97397.13
2023-03-10T06:17:37.280Z,97396.28
2023-03-10T06:20:05.670Z,97402.53
2023-03-10T06:22:33.395Z,97397.03
2023-03-10T06:25:01.240Z,97396.94
2023-03-10T06:27:30.651Z,97399.78
2023-03-10T06:29:58.373Z,97405.84
2023-03-10T06:32:27.674Z,97395.84
2023-03-10T06:34:55.392Z,97383.06
2023-03-10T06:37:23.198Z,97395.94
2023-03-10T06:39:50.920Z,97398.47
2023-03-10T06:42:18.570Z,97392.31
2023-03-10T06:44:48.816Z,97383.41
2023-03-10T06:47:16.902Z,97391.44
2023-03-10T06:49:45.875Z,97383.06
2023-03-10T06:52:13.496Z,97386.47
2023-03-10T06:54:41.621Z,97391.09
2023-03-10T06:57:09.356Z,97382.59
2023-03-10T06:59:37.158Z,97394.19
2023-03-10T07:02:04.978Z,97380.31
2023-03-10T07:04:33.066Z,97374.34
2023-03-10T07:07:02.092Z,97301.28
2023-03-10T07:09:29.855Z,97387.63
2023-03-10T07:11:57.590Z,97377.50
2023-03-10T07:14:25.239Z,97382.69
2023-03-10T07:16:52.953Z,97383.75
2023-03-10T07:19:20.905Z,97379.53
2023-03-10T07:21:48.952Z,97381.69
2023-03-10T07:24:19.594Z,97376.25
2023-03-10T07:26:47.307Z,97379.25
2023-03-10T07:29:14.921Z,97366.81
2023-03-10T07:31:44.945Z,97380.94
2023-03-10T07:34:12.697Z,97375.53
2023-03-10T07:36:40.360Z,97382.88
2023-03-10T07:39:08.114Z,97385.47
2023-03-10T07:41:37.085Z,97379.94
2023-03-10T07:44:04.764Z,97387.09
2023-03-10T07:46:32.480Z,97392.47
2023-03-10T07:49:04.092Z,97394.69
2023-03-10T07:51:31.799Z,97389.72
2023-03-10T07:53:59.724Z,97399.09
2023-03-10T07:56:28.112Z,97366.25
2023-03-10T07:58:57.068Z,97393.16
2023-03-10T08:01:24.848Z,97396.13
2023-03-10T08:03:52.797Z,97377.97
2023-03-10T08:06:23.320Z,97387.31
2023-03-10T08:08:51.436Z,97381.94
2023-03-10T08:11:20.175Z,97387.91
2023-03-10T08:13:48.769Z,97355.56
2023-03-10T08:16:20.419Z,97384.59
2023-03-10T08:18:49.918Z,97386.69
2023-03-10T08:21:17.892Z,97397.03
2023-03-10T08:23:45.662Z,97398.47
2023-03-10T08:26:15.288Z,97402.06
2023-03-10T08:28:43.272Z,97405.97
2023-03-10T08:31:12.455Z,97413.97
2023-03-10T08:33:42.945Z,97427.66
2023-03-10T08:36:13.638Z,97438.28
2023-03-10T08:38:42.234Z,97408.44
2023-03-10T08:41:14.898Z,97440.09
2023-03-10T08:43:43.188Z,97443.44
2023-03-10T08:46:11.923Z,97455.63
2023-03-10T08:48:42.905Z,97456.03
2023-03-10T08:51:15.111Z,97463.16
2023-03-10T08:53:46.576Z,97448.34
2023-03-10T08:56:14.925Z,97466.84
2023-03-10T08:58:42.838Z,97460.69
2023-03-10T09:01:11.632Z,97458.28
2023-03-10T09:03:41.827Z,97465.91
2023-03-10T09:06:10.389Z,97462.03
2023-03-10T09:08:39.633Z,97466.75
2023-03-10T09:11:07.274Z,97459.94
2023-03-10T09:13:35.001Z,97465.94
2023-03-10T09:16:02.823Z,97460.97
2023-03-10T09:18:30.573Z,97464.56
2023-03-10T09:20:59.512Z,97462.34
2023-03-10T09:23:27.220Z,97466.66
2023-03-10T09:25:54.983Z,97468.34
2023-03-10T09:28:22.667Z,97467.97
2023-03-10T09:30:54.513Z,97472.31
2023-03-10T09:33:23.327Z,97473.22
2023-03-10T09:36:05.379Z,97478.03
2023-03-10T09:38:35.547Z,97472.31
2023-03-10T09:41:16.291Z,97468.66
2023-03-10T09:43:50.681Z,97462.03
2023-03-10T09:46:23.948Z,97456.50
2023-03-10T09:48:59.263Z,97453.91
2023-03-10T09:51:29.473Z,97451.25
2023-03-10T09:54:18.514Z,97450.28
2023-03-10T09:56:46.122Z,97441.09
2023-03-10T09:59:17.956Z,97453.28
2023-03-10T10:01:48.996Z,97459.38
2023-03-10T10:04:20.221Z,97460.81
2023-03-10T10:06:49.403Z,97450.50
2023-03-10T10:09:28.882Z,97452.13
2023-03-10T10:11:56.955Z,97454.25
2023-03-10T10:14:30.042Z,97463.16
2023-03-10T10:17:09.384Z,97453.19
2023-03-10T10:19:39.763Z,97459.28
2023-03-10T10:22:14.652Z,97451.06
2023-03-10T10:24:59.717Z,97458.22
2023-03-10T10:27:27.389Z,97463.28
2023-03-10T10:29:55.011Z,97455.84
2023-03-10T10:32:22.800Z,97452.09
2023-03-10T10:34:50.480Z,97370.50
2023-03-10T10:37:29.751Z,97453.97
2023-03-10T10:40:01.025Z,97459.41
2023-03-10T10:42:30.693Z,97459.63
2023-03-10T10:44:59.679Z,97457.59
2023-03-10T10:47:30.837Z,97454.44
2023-03-10T10:50:18.940Z,97476.31
2023-03-10T10:52:48.831Z,97471.75
2023-03-10T10:55:29.845Z,97475.41
2023-03-10T10:58:01.680Z,97463.75
2023-03-10T11:00:31.837Z,97490.06
2023-03-10T11:02:59.944Z,97489.66
2023-03-10T11:05:35.838Z,97480.25
2023-03-10T11:08:18.749Z,97475.31
2023-03-10T11:10:54.630Z,97439.03
2023-03-10T11:13:26.139Z,97474.34
2023-03-10T11:16:01.466Z,97470.75
2023-03-10T11:18:32.944Z,97451.44
2023-03-10T11:21:09.902Z,97477.09
2023-03-10T11:23:44.741Z,97473.69
2023-03-10T11:26:22.176Z,97480.50
2023-03-10T11:28:54.835Z,97476.44
2023-03-10T11:31:34.314Z,97467.53
2023-03-10T11:34:15.475Z,97484.56
2023-03-10T11:36:55.896Z,97492.78
2023-03-10T11:39:36.180Z,97483.31
2023-03-10T11:42:14.980Z,97478.00
2023-03-10T11:44:49.866Z,97483.53
2023-03-10T11:47:25.769Z,97470.34
2023-03-10T11:50:04.106Z,97477.41
2023-03-10T11:52:33.994Z,97424.94
2023-03-10T11:55:06.609Z,97486.31
2023-03-10T11:57:40.636Z,97469.06
2023-03-10T12:00:19.333Z,97460.59
2023-03-10T12:02:55.702Z,97427.34
2023-03-10T12:05:25.876Z,97477.09
2023-03-10T12:07:56.466Z,97466.41
2023-03-10T12:10:25.518Z,97472.72
2023-03-10T12:12:55.229Z,97484.94
2023-03-10T12:15:25.292Z,97475.28
2023-03-10T12:17:54.455Z,97467.72
2023-03-10T12:20:28.658Z,97476.84
2023-03-10T12:22:57.715Z,97458.81
2023-03-10T12:25:46.069Z,97463.56
2023-03-10T12:28:24.403Z,97465.38
2023-03-10T12:30:56.383Z,97467.22
2023-03-10T12:34:01.775Z,97461.47
2023-03-10T12:36:39.378Z,97459.16
2023-03-10T12:39:38.901Z,97455.13
2023-03-10T12:42:22.096Z,97449.94
2023-03-10T12:44:56.540Z,97422.72
2023-03-10T12:47:32.691Z,97444.72
2023-03-10T12:50:07.030Z,97455.81
2023-03-10T12:52:48.724Z,97449.53
2023-03-10T12:55:21.004Z,97451.72
2023-03-10T12:58:01.384Z,97445.69
2023-03-10T13:00:40.448Z,97443.22
2023-03-10T13:03:19.350Z,97428.75
2023-03-10T13:06:00.823Z,97435.75
2023-03-10T13:08:35.980Z,97425.16
2023-03-10T13:11:04.700Z,97435.34
2023-03-10T13:13:35.730Z,97424.09
2023-03-10T13:16:07.232Z,97423.75
2023-03-10T13:18:36.304Z,97432.66
2023-03-10T13:21:04.037Z,97444.84
2023-03-10T13:23:34.339Z,97441.25
2023-03-10T13:26:06.796Z,97436.53
2023-03-10T13:28:35.917Z,97436.03
2023-03-10T13:31:21.216Z,97424.72
2023-03-10T13:33:53.606Z,97426.06
2023-03-10T13:36:23.917Z,97406.81
2023-03-10T13:38:53.052Z,97418.44
2023-03-10T13:41:21.122Z,97416.81
2023-03-10T13:43:51.613Z,97421.53
2023-03-10T13:46:25.482Z,97411.00
2023-03-10T13:48:54.086Z,97413.25
2023-03-10T13:51:23.980Z,97406.81
2023-03-10T13:53:54.857Z,97406.81
2023-03-10T13:56:25.650Z,97423.19
2023-03-10T13:58:58.049Z,97434.31
2023-03-10T14:01:30.332Z,97442.47
2023-03-10T14:04:00.071Z,97439.72
2023-03-10T14:06:30.049Z,97451.63
2023-03-10T14:08:57.724Z,97448.69
2023-03-10T14:11:33.368Z,97458.63
2023-03-10T14:14:01.901Z,97461.47
2023-03-10T14:16:51.364Z,97453.94
2023-03-10T14:19:38.211Z,97456.00
2023-03-10T14:22:22.552Z,97454.53
2023-03-10T14:24:50.517Z,97481.84
2023-03-10T14:27:18.607Z,97467.81
2023-03-10T14:29:50.289Z,97485.56
2023-03-10T14:32:19.456Z,97484.28
2023-03-10T14:34:48.293Z,97478.59
2023-03-10T14:37:16.378Z,97500.28
2023-03-10T14:39:44.067Z,97495.75
2023-03-10T14:42:20.949Z,97500.75
2023-03-10T14:44:50.246Z,97505.63
2023-03-10T14:47:19.438Z,97499.88
2023-03-10T14:49:47.298Z,97511.25
2023-03-10T14:52:16.928Z,97535.72
2023-03-10T14:54:44.902Z,97498.91
2023-03-10T14:57:15.898Z,97551.72
2023-03-10T14:59:43.609Z,97541.09
2023-03-10T15:02:19.762Z,97547.09
2023-03-10T15:04:49.437Z,97549.81
2023-03-10T15:07:17.641Z,97556.69
2023-03-10T15:09:45.391Z,97569.66
2023-03-10T15:12:15.013Z,97566.56
2023-03-10T15:14:52.339Z,97553.84
2023-03-10T15:17:20.002Z,97582.16
2023-03-10T15:19:49.023Z,97602.56
2023-03-10T15:22:16.715Z,97592.28
2023-03-10T15:24:44.354Z,97607.53
2023-03-10T15:27:13.169Z,97620.94
2023-03-10T15:29:40.893Z,97635.13
2023-03-10T15:32:08.827Z,97626.66
2023-03-10T15:34:36.432Z,97620.25
2023-03-10T15:37:07.318Z,97624.47
2023-03-10T15:39:37.259Z,97622.50
2023-03-10T15:42:05.163Z,97646.81
2023-03-10T15:44:32.836Z,97634.81
2023-03-10T15:47:00.564Z,97632.47
2023-03-10T15:49:28.311Z,97633.25
2023-03-10T15:51:56.086Z,97647.72
2023-03-10T15:54:25.470Z,97678.09
2023-03-10T15:56:53.169Z,97662.97
2023-03-10T15:59:20.976Z,97671.56
2023-03-10T16:01:48.694Z,97677.44
2023-03-10T16:04:16.460Z,97677.38
2023-03-10T16:06:44.254Z,97674.28
2023-03-10T16:09:11.966Z,97662.63
2023-03-10T16:11:41.178Z,97662.19
2023-03-10T16:14:08.891Z,97664.56
2023-03-10T16:16:36.688Z,97660.38
2023-03-10T16:19:04.485Z,97669.16
2023-03-10T16:21:32.523Z,97680.53
2023-03-10T16:24:00.173Z,97694.81
2023-03-10T16:26:27.906Z,97709.56
2023-03-10T16:28:56.876Z,97729.66
2023-03-10T16:31:26.955Z,97736.75
2023-03-10T16:33:55.959Z,97741.22
2023-03-10T16:36:25.187Z,97737.16
2023-03-10T16:38:53.692Z,97741.75
2023-03-10T16:41:23.171Z,97741.34
2023-03-10T16:43:51.081Z,97726.44
2023-03-10T16:46:25.438Z,97731.16
2023-03-10T16:48:54.702Z,97733.66
2023-03-10T16:51:26.550Z,97742.88
2023-03-10T16:53:55.878Z,97752.19
2023-03-10T16:56:25.065Z,97740.22
2023-03-10T16:58:53.421Z,97761.50
2023-03-10T17:01:23.876Z,97782.66
2023-03-10T17:03:51.947Z,97780.13
2023-03-10T17:06:22.678Z,97815.72
2023-03-10T17:08:51.220Z,97800.16
2023-03-10T17:11:20.717Z,97794.19
2023-03-10T17:13:49.670Z,97793.25
2023-03-10T17:16:18.871Z,97776.63
2023-03-10T17:18:48.119Z,97799.56
2023-03-10T17:21:18.174Z,97800.38
2023-03-10T17:23:46.662Z,97800.75
2023-03-10T17:26:15.131Z,97813.03
2023-03-10T17:28:43.550Z,97815.16
2023-03-10T17:31:13.616Z,97822.03
2023-03-10T17:33:42.613Z,97774.03
2023-03-10T17:36:14.782Z,97832.16
2023-03-10T17:38:43.134Z,97844.31
2023-03-10T17:41:12.692Z,97847.50
2023-03-10T17:43:41.084Z,97872.25
2023-03-10T17:46:12.087Z,97861.59
2023-03-10T17:48:39.906Z,97853.16
2023-03-10T17:51:08.057Z,97820.19
2023-03-10T17:53:37.292Z,97871.28
2023-03-10T17:56:05.859Z,97871.59
2023-03-10T17:58:33.791Z,97885.47
2023-03-10T18:01:07.971Z,97865.66
2023-03-10T18:03:36.442Z,97871.44
2023-03-10T18:06:05.011Z,97848.47
2023-03-10T18:08:32.683Z,97843.78
2023-03-10T18:11:02.603Z,97869.19
2023-03-10T18:13:30.707Z,97867.22
2023-03-10T18:15:59.037Z,97880.94
2023-03-10T18:18:27.115Z,97879.53
2023-03-10T18:20:54.771Z,97858.91
2023-03-10T18:23:23.157Z,97865.16
2023-03-10T18:25:51.721Z,97863.50
2023-03-10T18:28:23.025Z,97892.88
2023-03-10T18:30:52.990Z,97887.88
2023-03-10T18:33:20.764Z,97920.84
2023-03-10T18:35:48.653Z,97903.91
2023-03-10T18:38:18.368Z,97888.66
2023-03-10T18:40:46.035Z,97916.03
2023-03-10T18:43:13.865Z,97914.97
2023-03-10T18:45:44.435Z,97947.78
2023-03-10T18:48:12.077Z,97935.16
2023-03-10T18:50:39.698Z,97943.38
2023-03-10T18:53:07.390Z,97950.84
2023-03-10T18:55:35.057Z,97951.81
2023-03-10T18:58:02.703Z,97992.59
2023-03-10T19:00:30.485Z,97976.75
2023-03-10T19:02:59.459Z,97959.25
2023-03-10T19:05:27.952Z,97991.53
2023-03-10T19:07:55.907Z,97993.47
2023-03-10T19:10:23.887Z,98036.56
2023-03-10T19:12:51.671Z,98054.75
2023-03-10T19:15:19.430Z,98069.00
2023-03-10T19:17:47.250Z,98079.13
2023-03-10T19:20:18.192Z,98083.22
2023-03-10T19:22:49.492Z,98098.06
2023-03-10T19:25:17.643Z,98094.16
2023-03-10T19:27:46.012Z,98075.41
2023-03-10T19:30:17.124Z,98103.47
2023-03-10T19:32:45.626Z,98123.31
2023-03-10T19:35:14.057Z,98141.59
2023-03-10T19:37:43.776Z,98080.91
2023-03-10T19:40:15.663Z,98170.00
2023-03-10T19:42:43.914Z,98173.38
2023-03-10T19:45:12.990Z,98220.50
2023-03-10T19:47:41.501Z,98222.13
2023-03-10T19:50:11.019Z,98228.72
2023-03-10T19:52:38.940Z,98232.06
2023-03-10T19:55:09.408Z,98256.56
2023-03-10T19:57:37.721Z,98277.22
2023-03-10T20:00:07.616Z,98283.94
2023-03-10T20:02:35.467Z,98282.75
2023-03-10T20:05:03.480Z,98286.25
2023-03-10T20:07:31.116Z,98294.78
2023-03-10T20:09:58.757Z,98295.72
2023-03-10T20:12:27.764Z,98310.31
2023-03-10T20:14:58.654Z,98321.16
2023-03-10T20:17:26.380Z,98333.50
2023-03-10T20:19:54.035Z,98353.44
2023-03-10T20:22:21.704Z,98353.91
2023-03-10T20:24:49.320Z,98375.25
2023-03-10T20:27:16.982Z,98385.84
2023-03-10T20:29:46.137Z,98395.22
2023-03-10T20:32:13.836Z,98413.09
2023-03-10T20:34:41.530Z,98406.78
2023-03-10T20:37:09.198Z,98422.31
2023-03-10T20:39:37.386Z,98425.56
2023-03-10T20:42:05.048Z,98436.16
2023-03-10T20:44:33.197Z,98440.84
2023-03-10T20:47:02.213Z,98446.22
2023-03-10T20:49:30.331Z,98461.88
2023-03-10T20:51:58.041Z,98468.94
2023-03-10T20:54:25.833Z,98476.00
2023-03-10T20:56:53.593Z,98480.59
2023-03-10T20:59:21.229Z,98506.25
2023-03-10T21:01:48.898Z,98527.13
2023-03-10T21:04:19.858Z,98536.41
2023-03-10T21:06:47.855Z,98552.31
2023-03-10T21:09:16.389Z,98553.28
2023-03-10T21:11:44.468Z,98562.53
2023-03-10T21:14:12.146Z,98569.72
2023-03-10T21:16:41.995Z,98578.59
2023-03-10T21:19:10.215Z,98560.88
2023-03-10T21:21:39.207Z,98577.41
2023-03-10T21:24:07.126Z,98585.13
2023-03-10T21:26:35.810Z,98588.63
2023-03-10T21:29:04.282Z,98600.97
2023-03-10T21:31:32.187Z,98608.25
2023-03-10T21:33:59.834Z,98603.94
2023-03-10T21:36:27.788Z,98610.59
2023-03-10T21:38:56.828Z,98608.25
2023-03-10T21:41:26.811Z,98619.38
2023-03-10T21:43:55.645Z,98612.50
2023-03-10T21:46:24.684Z,98629.34
2023-03-10T21:48:53.216Z,98625.41
2023-03-10T21:51:23.037Z,98621.94
2023-03-10T21:53:51.703Z,98616.03
2023-03-10T21:56:22.526Z,98619.28
2023-03-10T21:58:50.438Z,98622.78
2023-03-10T22:01:19.488Z,98625.50
2023-03-10T22:03:47.405Z,98630.72
2023-03-10T22:06:15.088Z,98629.25
2023-03-10T22:08:43.075Z,98636.88
2023-03-10T22:11:10.937Z,98639.59
2023-03-10T22:13:40.315Z,98649.16
2023-03-10T22:16:10.554Z,98638.63
2023-03-10T22:18:38.630Z,98647.09
2023-03-10T22:21:06.532Z,98653.75
2023-03-10T22:23:34.267Z,98658.47
2023-03-10T22:26:02.268Z,98668.53
2023-03-10T22:28:29.883Z,98676.16
2023-03-10T22:30:58.858Z,98682.63
2023-03-10T22:33:26.643Z,98683.66
2023-03-10T22:35:54.346Z,98681.94
2023-03-10T22:38:23.457Z,98690.06
2023-03-10T22:40:51.074Z,98688.47
2023-03-10T22:43:18.746Z,98699.84
2023-03-10T22:45:46.687Z,98694.34
2023-03-10T22:48:15.648Z,98709.56
2023-03-10T22:50:46.585Z,98704.63
2023-03-10T22:53:15.925Z,98712.03
2023-03-10T22:55:43.773Z,98726.31
2023-03-10T22:58:11.968Z,98723.22
2023-03-10T23:00:40.336Z,98732.13
2023-03-10T23:03:08.961Z,98720.94
2023-03-10T23:05:38.095Z,98718.03
2023-03-10T23:08:06.970Z,98717.69
2023-03-10T23:10:36.757Z,98719.03
2023-03-10T23:13:06.851Z,98674.16
2023-03-10T23:15:38.401Z,98726.13
2023-03-10T23:18:07.301Z,98711.34
2023-03-10T23:20:39.449Z,98711.06
2023-03-10T23:23:08.575Z,98722.50
2023-03-10T23:25:38.398Z,98722.00
2023-03-10T23:28:08.508Z,98739.00
2023-03-10T23:30:39.162Z,98739.09
2023-03-10T23:33:08.246Z,98748.50
2023-03-10T23:35:38.352Z,98752.91
2023-03-10T23:38:06.648Z,98762.03
2023-03-10T23:40:35.853Z,98762.00
2023-03-10T23:43:05.818Z,98769.50
2023-03-10T23:45:34.152Z,98770.22
2023-03-10T23:48:02.675Z,98783.00
2023-03-10T23:50:32.789Z,98780.72
2023-03-10T23:53:02.479Z,98781.34
2023-03-10T23:55:33.005Z,98750.97
2023-03-10T23:58:01.472Z,98799.09
